sensor_id;sensor_type;location;lat;lon;timestamp;temperature;humidity
11093;DHT22;5600;50.864;6.102;2022-10-04T00:02:22;9.20;99.90
11093;DHT22;5600;50.864;6.102;2022-10-04T00:05:24;9.20;99.90
11093;DHT22;5600;50.864;6.102;2022-10-04T00:08:54;9.20;99.90
11093;DHT22;5600;50.864;6.102;2022-10-04T00:11:58;9.20;99.90
11093;DHT22;5600;50.864;6.102;2022-10-04T00:15:03;9.20;99.90
11093;DHT22;5600;50.864;6.102;2022-10-04T00:21:10;9.10;99.90
11093;DHT22;5600;50.864;6.102;2022-10-04T00:24:20;9.10;99.90
11093;DHT22;5600;50.864;6.102;2022-10-04T00:27:23;9.10;99.90
11093;DHT22;5600;50.864;6.102;2022-10-04T00:30:25;9.10;99.90
11093;DHT22;5600;50.864;6.102;2022-10-04T00:33:39;9.20;99.90
11093;DHT22;5600;50.864;6.102;2022-10-04T00:36:51;9.30;99.90
11093;DHT22;5600;50.864;6.102;2022-10-04T00:40:10;9.40;99.90
11093;DHT22;5600;50.864;6.102;2022-10-04T00:43:28;9.40;99.90
11093;DHT22;5600;50.864;6.102;2022-10-04T00:46:30;9.40;99.90
11093;DHT22;5600;50.864;6.102;2022-10-04T00:49:35;9.40;99.90
11093;DHT22;5600;50.864;6.102;2022-10-04T00:52:43;9.30;99.90
11093;DHT22;5600;50.864;6.102;2022-10-04T00:55:51;9.30;99.90
11093;DHT22;5600;50.864;6.102;2022-10-04T01:05:36;9.30;99.90
11093;DHT22;5600;50.864;6.102;2022-10-04T01:08:44;9.20;99.90
11093;DHT22;5600;50.864;6.102;2022-10-04T01:12:02;9.20;99.90
11093;DHT22;5600;50.864;6.102;2022-10-04T01:15:10;9.20;99.90
11093;DHT22;5600;50.864;6.102;2022-10-04T01:18:28;9.10;99.90
11093;DHT22;5600;50.864;6.102;2022-10-04T01:21:30;9.10;99.90
11093;DHT22;5600;50.864;6.102;2022-10-04T01:24:36;9.10;99.90
11093;DHT22;5600;50.864;6.102;2022-10-04T01:27:43;9.20;99.90
11093;DHT22;5600;50.864;6.102;2022-10-04T01:30:44;9.20;99.90
11093;DHT22;5600;50.864;6.102;2022-10-04T01:33:45;9.20;99.90
11093;DHT22;5600;50.864;6.102;2022-10-04T01:36:46;9.20;99.90
11093;DHT22;5600;50.864;6.102;2022-10-04T01:39:48;9.20;99.90
11093;DHT22;5600;50.864;6.102;2022-10-04T01:42:51;9.30;99.90
11093;DHT22;5600;50.864;6.102;2022-10-04T01:45:59;9.30;99.90
11093;DHT22;5600;50.864;6.102;2022-10-04T01:49:11;9.40;99.90
11093;DHT22;5600;50.864;6.102;2022-10-04T01:52:26;9.40;99.90
11093;DHT22;5600;50.864;6.102;2022-10-04T01:55:32;9.30;99.90
11093;DHT22;5600;50.864;6.102;2022-10-04T01:58:51;9.20;99.90
11093;DHT22;5600;50.864;6.102;2022-10-04T02:04:58;9.10;99.90
11093;DHT22;5600;50.864;6.102;2022-10-04T02:08:09;9.00;99.90
11093;DHT22;5600;50.864;6.102;2022-10-04T02:11:16;9.00;99.90
11093;DHT22;5600;50.864;6.102;2022-10-04T02:14:22;8.90;99.90
11093;DHT22;5600;50.864;6.102;2022-10-04T02:17:36;8.90;99.90
11093;DHT22;5600;50.864;6.102;2022-10-04T02:20:39;8.80;99.90
11093;DHT22;5600;50.864;6.102;2022-10-04T02:23:41;8.80;99.90
11093;DHT22;5600;50.864;6.102;2022-10-04T02:26:50;8.70;99.90
11093;DHT22;5600;50.864;6.102;2022-10-04T02:29:51;8.70;99.90
11093;DHT22;5600;50.864;6.102;2022-10-04T02:32:53;8.60;99.90
11093;DHT22;5600;50.864;6.102;2022-10-04T02:35:59;8.60;99.90
11093;DHT22;5600;50.864;6.102;2022-10-04T02:39:13;8.50;99.90
11093;DHT22;5600;50.864;6.102;2022-10-04T02:42:18;8.50;99.90
11093;DHT22;5600;50.864;6.102;2022-10-04T02:48:47;8.40;99.90
11093;DHT22;5600;50.864;6.102;2022-10-04T02:51:52;8.40;99.90
11093;DHT22;5600;50.864;6.102;2022-10-04T02:58:01;8.30;99.90
11093;DHT22;5600;50.864;6.102;2022-10-04T03:01:04;8.30;99.90
11093;DHT22;5600;50.864;6.102;2022-10-04T03:04:04;8.30;99.90
11093;DHT22;5600;50.864;6.102;2022-10-04T03:07:07;8.20;99.90
11093;DHT22;5600;50.864;6.102;2022-10-04T03:10:11;8.20;99.90
11093;DHT22;5600;50.864;6.102;2022-10-04T03:13:13;8.20;99.90
11093;DHT22;5600;50.864;6.102;2022-10-04T03:16:15;8.10;99.90
11093;DHT22;5600;50.864;6.102;2022-10-04T03:19:18;8.10;99.90
11093;DHT22;5600;50.864;6.102;2022-10-04T03:22:19;8.10;99.90
11093;DHT22;5600;50.864;6.102;2022-10-04T03:25:27;8.00;99.90
11093;DHT22;5600;50.864;6.102;2022-10-04T03:28:29;8.00;99.90
11093;DHT22;5600;50.864;6.102;2022-10-04T03:31:31;8.00;99.90
11093;DHT22;5600;50.864;6.102;2022-10-04T03:34:37;7.90;99.90
11093;DHT22;5600;50.864;6.102;2022-10-04T03:37:38;7.90;99.90
11093;DHT22;5600;50.864;6.102;2022-10-04T03:40:45;7.90;99.90
11093;DHT22;5600;50.864;6.102;2022-10-04T03:43:52;7.80;99.90
11093;DHT22;5600;50.864;6.102;2022-10-04T03:46:54;7.80;99.90
11093;DHT22;5600;50.864;6.102;2022-10-04T03:49:59;7.80;99.90
11093;DHT22;5600;50.864;6.102;2022-10-04T03:53:11;7.80;99.90
11093;DHT22;5600;50.864;6.102;2022-10-04T03:56:23;7.80;99.90
11093;DHT22;5600;50.864;6.102;2022-10-04T03:59:26;7.80;99.90
11093;DHT22;5600;50.864;6.102;2022-10-04T04:02:40;7.70;99.90
11093;DHT22;5600;50.864;6.102;2022-10-04T04:05:47;7.70;99.90
11093;DHT22;5600;50.864;6.102;2022-10-04T04:08:52;7.60;99.90
11093;DHT22;5600;50.864;6.102;2022-10-04T04:11:55;7.60;99.90
11093;DHT22;5600;50.864;6.102;2022-10-04T04:14:57;7.60;99.90
11093;DHT22;5600;50.864;6.102;2022-10-04T04:18:04;7.60;99.90
11093;DHT22;5600;50.864;6.102;2022-10-04T04:21:06;7.50;99.90
11093;DHT22;5600;50.864;6.102;2022-10-04T04:24:18;7.50;99.90
11093;DHT22;5600;50.864;6.102;2022-10-04T04:27:23;7.50;99.90
11093;DHT22;5600;50.864;6.102;2022-10-04T04:30:25;7.40;99.90
11093;DHT22;5600;50.864;6.102;2022-10-04T04:36:40;7.40;99.90
11093;DHT22;5600;50.864;6.102;2022-10-04T04:39:41;7.40;99.90
11093;DHT22;5600;50.864;6.102;2022-10-04T04:42:44;7.40;99.90
11093;DHT22;5600;50.864;6.102;2022-10-04T04:45:47;7.30;99.90
11093;DHT22;5600;50.864;6.102;2022-10-04T04:49:01;7.30;99.90
11093;DHT22;5600;50.864;6.102;2022-10-04T04:52:02;7.30;99.90
11093;DHT22;5600;50.864;6.102;2022-10-04T04:55:04;7.30;99.90
11093;DHT22;5600;50.864;6.102;2022-10-04T04:58:07;7.30;99.90
11093;DHT22;5600;50.864;6.102;2022-10-04T05:04:20;7.30;99.90
11093;DHT22;5600;50.864;6.102;2022-10-04T05:07:21;7.30;99.90
11093;DHT22;5600;50.864;6.102;2022-10-04T05:10:29;7.30;99.90
11093;DHT22;5600;50.864;6.102;2022-10-04T05:13:37;7.30;99.90
11093;DHT22;5600;50.864;6.102;2022-10-04T05:16:45;7.40;99.90
11093;DHT22;5600;50.864;6.102;2022-10-04T05:19:48;7.40;99.90
11093;DHT22;5600;50.864;6.102;2022-10-04T05:22:49;7.50;99.90
11093;DHT22;5600;50.864;6.102;2022-10-04T05:25:51;7.40;99.90
11093;DHT22;5600;50.864;6.102;2022-10-04T05:28:52;7.40;99.90
11093;DHT22;5600;50.864;6.102;2022-10-04T05:32:14;7.30;99.90
11093;DHT22;5600;50.864;6.102;2022-10-04T05:35:21;7.30;99.90
11093;DHT22;5600;50.864;6.102;2022-10-04T05:38:36;7.20;99.90
11093;DHT22;5600;50.864;6.102;2022-10-04T05:45:30;7.20;99.90
11093;DHT22;5600;50.864;6.102;2022-10-04T05:48:32;7.20;99.90
11093;DHT22;5600;50.864;6.102;2022-10-04T05:55:20;7.10;99.90
11093;DHT22;5600;50.864;6.102;2022-10-04T06:01:49;7.10;99.90
11093;DHT22;5600;50.864;6.102;2022-10-04T06:08:07;7.10;99.90
11093;DHT22;5600;50.864;6.102;2022-10-04T06:11:20;7.10;99.90
11093;DHT22;5600;50.864;6.102;2022-10-04T06:21:27;7.20;99.90
11093;DHT22;5600;50.864;6.102;2022-10-04T06:24:31;7.20;99.90
11093;DHT22;5600;50.864;6.102;2022-10-04T06:27:38;7.20;99.90
11093;DHT22;5600;50.864;6.102;2022-10-04T06:38:06;7.40;99.90
11093;DHT22;5600;50.864;6.102;2022-10-04T06:44:20;7.50;99.90
11093;DHT22;5600;50.864;6.102;2022-10-04T07:00:23;8.20;99.90
11093;DHT22;5600;50.864;6.102;2022-10-04T07:03:38;8.30;99.90
11093;DHT22;5600;50.864;6.102;2022-10-04T07:06:46;8.40;99.90
11093;DHT22;5600;50.864;6.102;2022-10-04T07:09:51;8.50;99.90
11093;DHT22;5600;50.864;6.102;2022-10-04T07:13:10;8.70;99.90
11093;DHT22;5600;50.864;6.102;2022-10-04T07:22:41;9.20;99.90
11093;DHT22;5600;50.864;6.102;2022-10-04T07:25:48;9.40;99.90
11093;DHT22;5600;50.864;6.102;2022-10-04T07:28:51;9.60;99.90
11093;DHT22;5600;50.864;6.102;2022-10-04T07:32:27;10.00;99.90
11093;DHT22;5600;50.864;6.102;2022-10-04T07:35:35;10.30;99.90
11093;DHT22;5600;50.864;6.102;2022-10-04T07:38:47;10.70;99.90
11093;DHT22;5600;50.864;6.102;2022-10-04T07:42:19;11.30;99.90
11093;DHT22;5600;50.864;6.102;2022-10-04T07:45:28;11.80;99.90
11093;DHT22;5600;50.864;6.102;2022-10-04T07:48:29;12.30;99.90
11093;DHT22;5600;50.864;6.102;2022-10-04T07:52:07;12.70;99.90
11093;DHT22;5600;50.864;6.102;2022-10-04T07:58:40;13.00;99.90
11093;DHT22;5600;50.864;6.102;2022-10-04T08:01:58;13.00;99.90
11093;DHT22;5600;50.864;6.102;2022-10-04T08:05:21;13.00;99.90
11093;DHT22;5600;50.864;6.102;2022-10-04T08:12:17;13.30;99.90
11093;DHT22;5600;50.864;6.102;2022-10-04T08:15:38;14.00;99.90
11093;DHT22;5600;50.864;6.102;2022-10-04T08:18:59;14.90;99.90
11093;DHT22;5600;50.864;6.102;2022-10-04T08:22:41;16.00;99.90
11093;DHT22;5600;50.864;6.102;2022-10-04T08:26:25;16.80;99.90
11093;DHT22;5600;50.864;6.102;2022-10-04T08:50:38;18.90;99.90
11093;DHT22;5600;50.864;6.102;2022-10-04T08:53:52;19.40;99.90
11093;DHT22;5600;50.864;6.102;2022-10-04T08:57:12;19.70;99.90
11093;DHT22;5600;50.864;6.102;2022-10-04T09:07:26;20.50;99.90
11093;DHT22;5600;50.864;6.102;2022-10-04T09:10:37;20.70;99.90
11093;DHT22;5600;50.864;6.102;2022-10-04T09:17:29;20.90;99.90
11093;DHT22;5600;50.864;6.102;2022-10-04T09:20:53;21.20;99.90
11093;DHT22;5600;50.864;6.102;2022-10-04T09:41:13;20.80;99.90
11093;DHT22;5600;50.864;6.102;2022-10-04T09:55:30;19.90;99.90
11093;DHT22;5600;50.864;6.102;2022-10-04T10:02:23;20.20;99.90
11093;DHT22;5600;50.864;6.102;2022-10-04T10:12:29;20.60;99.90
11093;DHT22;5600;50.864;6.102;2022-10-04T10:22:43;20.50;99.90
11093;DHT22;5600;50.864;6.102;2022-10-04T10:26:07;20.50;99.90
11093;DHT22;5600;50.864;6.102;2022-10-04T10:29:45;20.50;99.90
11093;DHT22;5600;50.864;6.102;2022-10-04T10:43:31;20.90;99.90
11093;DHT22;5600;50.864;6.102;2022-10-04T10:56:33;21.10;99.90
11093;DHT22;5600;50.864;6.102;2022-10-04T11:00:09;21.20;99.90
11093;DHT22;5600;50.864;6.102;2022-10-04T11:17:54;21.40;99.90
11093;DHT22;5600;50.864;6.102;2022-10-04T11:27:51;21.70;99.90
11093;DHT22;5600;50.864;6.102;2022-10-04T11:35:02;21.50;99.90
11093;DHT22;5600;50.864;6.102;2022-10-04T11:38:50;21.50;99.90
11093;DHT22;5600;50.864;6.102;2022-10-04T11:42:04;21.40;99.90
11093;DHT22;5600;50.864;6.102;2022-10-04T11:58:55;21.20;99.90
11093;DHT22;5600;50.864;6.102;2022-10-04T12:09:21;20.60;99.90
11093;DHT22;5600;50.864;6.102;2022-10-04T12:12:47;20.60;99.90
11093;DHT22;5600;50.864;6.102;2022-10-04T12:16:17;20.50;99.90
11093;DHT22;5600;50.864;6.102;2022-10-04T12:30:29;20.20;99.90
11093;DHT22;5600;50.864;6.102;2022-10-04T12:33:56;20.30;99.90
11093;DHT22;5600;50.864;6.102;2022-10-04T12:43:34;20.30;99.90
11093;DHT22;5600;50.864;6.102;2022-10-04T12:46:53;20.30;99.90
11093;DHT22;5600;50.864;6.102;2022-10-04T12:53:56;20.30;99.90
11093;DHT22;5600;50.864;6.102;2022-10-04T13:00:23;20.60;99.90
11093;DHT22;5600;50.864;6.102;2022-10-04T13:03:33;20.70;99.90
11093;DHT22;5600;50.864;6.102;2022-10-04T13:06:51;20.80;99.90
11093;DHT22;5600;50.864;6.102;2022-10-04T13:16:50;21.00;99.90
11093;DHT22;5600;50.864;6.102;2022-10-04T13:20:18;21.00;99.90
11093;DHT22;5600;50.864;6.102;2022-10-04T13:26:58;21.30;99.90
11093;DHT22;5600;50.864;6.102;2022-10-04T13:30:15;21.40;99.90
11093;DHT22;5600;50.864;6.102;2022-10-04T13:33:42;21.50;99.90
11093;DHT22;5600;50.864;6.102;2022-10-04T13:57:51;22.30;99.90
11093;DHT22;5600;50.864;6.102;2022-10-04T14:12:15;22.10;99.90
11093;DHT22;5600;50.864;6.102;2022-10-04T14:35:46;21.70;99.90
11093;DHT22;5600;50.864;6.102;2022-10-04T14:39:30;21.50;99.90
11093;DHT22;5600;50.864;6.102;2022-10-04T14:46:22;21.20;99.90
11093;DHT22;5600;50.864;6.102;2022-10-04T14:49:54;21.10;99.90
11093;DHT22;5600;50.864;6.102;2022-10-04T14:59:26;20.90;99.90
11093;DHT22;5600;50.864;6.102;2022-10-04T15:22:40;20.60;99.90
11093;DHT22;5600;50.864;6.102;2022-10-04T15:25:47;20.60;99.90
11093;DHT22;5600;50.864;6.102;2022-10-04T15:29:02;20.50;99.90
11093;DHT22;5600;50.864;6.102;2022-10-04T15:32:35;20.50;99.90
11093;DHT22;5600;50.864;6.102;2022-10-04T15:39:01;20.40;99.90
11093;DHT22;5600;50.864;6.102;2022-10-04T15:42:13;20.20;99.90
11093;DHT22;5600;50.864;6.102;2022-10-04T16:08:54;19.60;99.90
11093;DHT22;5600;50.864;6.102;2022-10-04T16:15:38;19.50;99.90
11093;DHT22;5600;50.864;6.102;2022-10-04T16:19:57;19.40;99.90
11093;DHT22;5600;50.864;6.102;2022-10-04T16:22:30;19.20;99.90
11093;DHT22;5600;50.864;6.102;2022-10-04T16:25:36;19.00;99.90
11093;DHT22;5600;50.864;6.102;2022-10-04T16:28:59;18.90;99.90
11093;DHT22;5600;50.864;6.102;2022-10-04T16:35:40;18.50;99.90
11093;DHT22;5600;50.864;6.102;2022-10-04T16:39:03;18.30;99.90
11093;DHT22;5600;50.864;6.102;2022-10-04T16:42:55;18.10;99.90
11093;DHT22;5600;50.864;6.102;2022-10-04T16:49:38;17.60;99.90
11093;DHT22;5600;50.864;6.102;2022-10-04T16:53:19;17.30;99.90
11093;DHT22;5600;50.864;6.102;2022-10-04T16:56:25;17.10;99.90
11093;DHT22;5600;50.864;6.102;2022-10-04T17:03:10;16.60;99.90
11093;DHT22;5600;50.864;6.102;2022-10-04T17:06:14;16.40;99.90
11093;DHT22;5600;50.864;6.102;2022-10-04T17:15:46;15.80;99.90
11093;DHT22;5600;50.864;6.102;2022-10-04T17:19:15;15.70;99.90
11093;DHT22;5600;50.864;6.102;2022-10-04T17:22:41;15.50;99.90
11093;DHT22;5600;50.864;6.102;2022-10-04T17:36:17;14.80;99.90
11093;DHT22;5600;50.864;6.102;2022-10-04T17:45:48;14.40;99.90
11093;DHT22;5600;50.864;6.102;2022-10-04T17:48:59;14.30;99.90
11093;DHT22;5600;50.864;6.102;2022-10-04T17:52:26;14.20;99.90
11093;DHT22;5600;50.864;6.102;2022-10-04T17:55:56;14.00;99.90
11093;DHT22;5600;50.864;6.102;2022-10-04T17:58:58;13.90;99.90
11093;DHT22;5600;50.864;6.102;2022-10-04T18:05:56;13.60;99.90
11093;DHT22;5600;50.864;6.102;2022-10-04T18:09:12;13.50;99.90
11093;DHT22;5600;50.864;6.102;2022-10-04T18:12:33;13.40;99.90
11093;DHT22;5600;50.864;6.102;2022-10-04T18:16:07;13.30;99.90
11093;DHT22;5600;50.864;6.102;2022-10-04T18:19:42;13.20;99.90
11093;DHT22;5600;50.864;6.102;2022-10-04T18:22:49;13.10;99.90
11093;DHT22;5600;50.864;6.102;2022-10-04T18:25:56;13.00;99.90
11093;DHT22;5600;50.864;6.102;2022-10-04T18:28:59;12.90;99.90
11093;DHT22;5600;50.864;6.102;2022-10-04T18:35:31;12.70;99.90
11093;DHT22;5600;50.864;6.102;2022-10-04T18:38:35;12.60;99.90
11093;DHT22;5600;50.864;6.102;2022-10-04T18:41:37;12.50;99.90
11093;DHT22;5600;50.864;6.102;2022-10-04T18:45:00;12.50;99.90
11093;DHT22;5600;50.864;6.102;2022-10-04T18:48:13;12.40;99.90
11093;DHT22;5600;50.864;6.102;2022-10-04T18:51:25;12.30;99.90
11093;DHT22;5600;50.864;6.102;2022-10-04T19:05:21;12.00;99.90
11093;DHT22;5600;50.864;6.102;2022-10-04T19:08:54;12.00;99.90
11093;DHT22;5600;50.864;6.102;2022-10-04T19:19:12;11.70;99.90
11093;DHT22;5600;50.864;6.102;2022-10-04T19:29:52;11.60;99.90
11093;DHT22;5600;50.864;6.102;2022-10-04T19:36:05;11.50;99.90
11093;DHT22;5600;50.864;6.102;2022-10-04T19:39:38;11.40;99.90
11093;DHT22;5600;50.864;6.102;2022-10-04T19:49:45;11.30;99.90
11093;DHT22;5600;50.864;6.102;2022-10-04T19:52:52;11.30;99.90
11093;DHT22;5600;50.864;6.102;2022-10-04T19:55:57;11.20;99.90
11093;DHT22;5600;50.864;6.102;2022-10-04T19:59:08;11.10;99.90
11093;DHT22;5600;50.864;6.102;2022-10-04T20:02:12;11.10;99.90
11093;DHT22;5600;50.864;6.102;2022-10-04T20:05:14;11.10;99.90
11093;DHT22;5600;50.864;6.102;2022-10-04T20:11:46;11.00;99.90
11093;DHT22;5600;50.864;6.102;2022-10-04T20:14:48;11.00;99.90
11093;DHT22;5600;50.864;6.102;2022-10-04T20:17:49;11.10;99.90
11093;DHT22;5600;50.864;6.102;2022-10-04T20:23:53;10.90;99.90
11093;DHT22;5600;50.864;6.102;2022-10-04T20:26:55;10.80;99.90
11093;DHT22;5600;50.864;6.102;2022-10-04T20:30:02;10.80;99.90
11093;DHT22;5600;50.864;6.102;2022-10-04T20:33:04;10.80;99.90
11093;DHT22;5600;50.864;6.102;2022-10-04T20:42:39;10.70;99.90
11093;DHT22;5600;50.864;6.102;2022-10-04T20:45:47;10.60;99.90
11093;DHT22;5600;50.864;6.102;2022-10-04T20:48:49;10.60;99.90
11093;DHT22;5600;50.864;6.102;2022-10-04T20:51:51;10.50;99.90
11093;DHT22;5600;50.864;6.102;2022-10-04T20:54:52;10.50;99.90
11093;DHT22;5600;50.864;6.102;2022-10-04T20:57:55;10.50;99.90
11093;DHT22;5600;50.864;6.102;2022-10-04T21:00:58;10.40;99.90
11093;DHT22;5600;50.864;6.102;2022-10-04T21:04:23;10.40;99.90
11093;DHT22;5600;50.864;6.102;2022-10-04T21:07:33;10.40;99.90
11093;DHT22;5600;50.864;6.102;2022-10-04T21:10:34;10.30;99.90
11093;DHT22;5600;50.864;6.102;2022-10-04T21:16:45;10.30;99.90
11093;DHT22;5600;50.864;6.102;2022-10-04T21:19:46;10.30;99.90
11093;DHT22;5600;50.864;6.102;2022-10-04T21:22:46;10.30;99.90
11093;DHT22;5600;50.864;6.102;2022-10-04T21:25:47;10.20;99.90
11093;DHT22;5600;50.864;6.102;2022-10-04T21:28:57;10.20;99.90
11093;DHT22;5600;50.864;6.102;2022-10-04T21:31:59;10.10;99.90
11093;DHT22;5600;50.864;6.102;2022-10-04T21:35:00;10.10;99.90
11093;DHT22;5600;50.864;6.102;2022-10-04T21:38:01;10.10;99.90
11093;DHT22;5600;50.864;6.102;2022-10-04T21:41:02;10.10;99.90
11093;DHT22;5600;50.864;6.102;2022-10-04T21:44:02;10.00;99.90
11093;DHT22;5600;50.864;6.102;2022-10-04T21:47:03;10.00;99.90
11093;DHT22;5600;50.864;6.102;2022-10-04T21:50:04;9.90;99.90
11093;DHT22;5600;50.864;6.102;2022-10-04T21:53:05;9.90;99.90
11093;DHT22;5600;50.864;6.102;2022-10-04T21:56:06;9.90;99.90
11093;DHT22;5600;50.864;6.102;2022-10-04T21:59:07;9.80;99.90
11093;DHT22;5600;50.864;6.102;2022-10-04T22:02:07;9.80;99.90
11093;DHT22;5600;50.864;6.102;2022-10-04T22:05:08;9.80;99.90
11093;DHT22;5600;50.864;6.102;2022-10-04T22:08:09;9.80;99.90
11093;DHT22;5600;50.864;6.102;2022-10-04T22:11:10;9.80;99.90
11093;DHT22;5600;50.864;6.102;2022-10-04T22:14:10;9.70;99.90
11093;DHT22;5600;50.864;6.102;2022-10-04T22:17:11;9.70;99.90
11093;DHT22;5600;50.864;6.102;2022-10-04T22:20:12;9.70;99.90
11093;DHT22;5600;50.864;6.102;2022-10-04T22:23:19;9.70;99.90
11093;DHT22;5600;50.864;6.102;2022-10-04T22:26:21;9.60;99.90
11093;DHT22;5600;50.864;6.102;2022-10-04T22:29:22;9.60;99.90
11093;DHT22;5600;50.864;6.102;2022-10-04T22:32:26;9.60;99.90
11093;DHT22;5600;50.864;6.102;2022-10-04T22:35:29;9.50;99.90
11093;DHT22;5600;50.864;6.102;2022-10-04T22:38:31;9.50;99.90
11093;DHT22;5600;50.864;6.102;2022-10-04T22:41:54;9.50;99.90
11093;DHT22;5600;50.864;6.102;2022-10-04T22:44:53;9.50;99.90
11093;DHT22;5600;50.864;6.102;2022-10-04T22:48:00;9.50;99.90
11093;DHT22;5600;50.864;6.102;2022-10-04T22:51:09;10.30;99.90
11093;DHT22;5600;50.864;6.102;2022-10-04T22:54:12;9.50;99.90
11093;DHT22;5600;50.864;6.102;2022-10-04T22:57:16;9.40;99.90
11093;DHT22;5600;50.864;6.102;2022-10-04T23:00:17;9.40;99.90
11093;DHT22;5600;50.864;6.102;2022-10-04T23:03:27;9.40;99.90
11093;DHT22;5600;50.864;6.102;2022-10-04T23:06:30;9.30;99.90
11093;DHT22;5600;50.864;6.102;2022-10-04T23:09:31;9.30;99.90
11093;DHT22;5600;50.864;6.102;2022-10-04T23:12:31;9.30;99.90
11093;DHT22;5600;50.864;6.102;2022-10-04T23:15:33;9.30;99.90
11093;DHT22;5600;50.864;6.102;2022-10-04T23:18:34;9.30;99.90
11093;DHT22;5600;50.864;6.102;2022-10-04T23:21:38;9.30;99.90
11093;DHT22;5600;50.864;6.102;2022-10-04T23:24:39;9.30;99.90
11093;DHT22;5600;50.864;6.102;2022-10-04T23:27:40;9.30;99.90
11093;DHT22;5600;50.864;6.102;2022-10-04T23:30:46;9.30;99.90
11093;DHT22;5600;50.864;6.102;2022-10-04T23:33:47;9.30;99.90
11093;DHT22;5600;50.864;6.102;2022-10-04T23:36:48;9.30;99.90
11093;DHT22;5600;50.864;6.102;2022-10-04T23:39:50;9.20;99.90
11093;DHT22;5600;50.864;6.102;2022-10-04T23:42:54;9.30;99.90
11093;DHT22;5600;50.864;6.102;2022-10-04T23:45:56;9.30;99.90
11093;DHT22;5600;50.864;6.102;2022-10-04T23:48:57;9.30;99.90
11093;DHT22;5600;50.864;6.102;2022-10-04T23:52:01;9.30;99.90
11093;DHT22;5600;50.864;6.102;2022-10-04T23:55:13;9.30;99.90
11093;DHT22;5600;50.864;6.102;2022-10-04T23:58:18;9.40;99.90
